createdAt,value
2017-11-06T00:01:21.232Z,77.30
2017-11-06T00:03:51.233Z,77.00
2017-11-06T00:06:21.135Z,76.90
2017-11-06T00:08:50.849Z,76.70
2017-11-06T00:11:21.174Z,76.70
2017-11-06T00:13:52.233Z,77.20
2017-11-06T00:16:23.188Z,78.40
2017-11-06T00:18:53.266Z,78.30
2017-11-06T00:21:24.206Z,77.70
2017-11-06T00:23:54.122Z,77.70
2017-11-06T00:26:24.032Z,77.10
2017-11-06T00:28:53.846Z,76.70
2017-11-06T00:31:23.739Z,77.70
2017-11-06T00:33:53.879Z,78.20
2017-11-06T00:36:23.780Z,77.20
2017-11-06T00:38:53.706Z,77.00
2017-11-06T00:41:23.622Z,77.50
2017-11-06T00:43:53.333Z,77.00
2017-11-06T00:46:24.270Z,77.20
2017-11-06T00:48:54.166Z,77.10
2017-11-06T00:51:24.097Z,78.90
2017-11-06T00:53:53.808Z,78.30
2017-11-06T00:56:23.725Z,78.20
2017-11-06T00:58:54.049Z,78.30
2017-11-06T01:01:24.370Z,77.00
2017-11-06T01:03:54.222Z,76.90
2017-11-06T01:06:24.197Z,77.20
2017-11-06T01:08:54.726Z,77.40
2017-11-06T01:11:24.639Z,77.40
2017-11-06T01:13:54.557Z,77.20
2017-11-06T01:16:32.050Z,76.90
2017-11-06T01:19:02.371Z,76.90
2017-11-06T01:21:33.117Z,77.10
2017-11-06T01:24:03.211Z,77.10
2017-11-06T01:26:34.163Z,77.20
2017-11-06T01:29:04.075Z,77.20
2017-11-06T01:31:34.931Z,77.20
2017-11-06T01:34:05.746Z,76.70
2017-11-06T01:36:35.800Z,76.70
2017-11-06T01:39:05.988Z,76.50
2017-11-06T01:41:37.130Z,76.70
2017-11-06T01:44:07.239Z,76.70
2017-11-06T01:46:37.163Z,76.30
2017-11-06T01:49:07.144Z,76.50
2017-11-06T01:51:37.173Z,76.50
2017-11-06T01:54:06.905Z,77.10
2017-11-06T01:56:38.666Z,76.50
2017-11-06T01:59:08.742Z,76.40
2017-11-06T02:01:38.695Z,76.10
2017-11-06T02:04:08.405Z,77.00
2017-11-06T02:06:39.140Z,76.70
2017-11-06T02:09:09.154Z,76.20
2017-11-06T02:11:39.192Z,76.20
2017-11-06T02:14:09.087Z,76.10
2017-11-06T02:16:39.822Z,75.60
2017-11-06T02:19:09.734Z,75.50
2017-11-06T02:21:41.083Z,76.30
2017-11-06T02:24:11.817Z,76.40
2017-11-06T02:26:41.716Z,76.40
2017-11-06T02:29:11.649Z,76.10
2017-11-06T02:31:41.562Z,76.40
2017-11-06T02:34:13.992Z,76.10
2017-11-06T02:36:44.049Z,76.10
2017-11-06T02:39:13.964Z,75.70
2017-11-06T02:41:44.700Z,76.10
2017-11-06T02:44:14.616Z,76.10
2017-11-06T02:46:45.552Z,76.40
2017-11-06T02:49:15.458Z,76.30
2017-11-06T02:51:45.379Z,76.10
2017-11-06T02:54:15.294Z,76.30
2017-11-06T02:56:45.004Z,75.70
2017-11-06T02:59:14.718Z,76.10
2017-11-06T03:01:45.038Z,76.10
2017-11-06T03:04:14.745Z,76.10
2017-11-06T03:06:44.965Z,76.20
2017-11-06T03:09:14.782Z,76.30
2017-11-06T03:11:44.899Z,76.50
2017-11-06T03:14:16.432Z,76.50
2017-11-06T03:16:46.235Z,76.50
2017-11-06T03:19:16.074Z,76.50
2017-11-06T03:21:46.923Z,76.00
2017-11-06T03:24:17.548Z,76.00
2017-11-06T03:26:47.456Z,75.90
2017-11-06T03:29:17.782Z,75.90
2017-11-06T03:31:48.720Z,75.90
2017-11-06T03:34:18.634Z,75.80
2017-11-06T03:36:48.341Z,75.90
2017-11-06T03:39:18.258Z,75.70
2017-11-06T03:41:47.969Z,75.90
2017-11-06T03:44:17.842Z,75.30
2017-11-06T03:46:47.597Z,76.20
2017-11-06T03:49:17.709Z,76.00
2017-11-06T03:51:47.705Z,76.00
2017-11-06T03:54:17.945Z,75.90
2017-11-06T03:56:48.314Z,76.10
2017-11-06T03:59:18.183Z,76.00
2017-11-06T04:01:49.532Z,75.80
2017-11-06T04:04:19.242Z,75.80
2017-11-06T04:06:49.156Z,75.70
2017-11-06T04:09:19.480Z,76.10
2017-11-06T04:11:49.518Z,75.90
2017-11-06T04:14:20.131Z,76.00
2017-11-06T04:16:50.151Z,75.90
2017-11-06T04:19:20.156Z,75.70
2017-11-06T04:21:50.078Z,75.50
2017-11-06T04:24:19.885Z,75.20
2017-11-06T04:26:49.700Z,75.70
2017-11-06T04:29:19.615Z,75.80
2017-11-06T04:31:49.732Z,75.70
2017-11-06T04:34:23.540Z,75.60
2017-11-06T04:36:53.453Z,75.50
2017-11-06T04:39:23.366Z,75.40
2017-11-06T04:41:54.100Z,75.60
2017-11-06T04:44:24.428Z,75.60
2017-11-06T04:46:58.026Z,75.40
2017-11-06T04:49:27.873Z,74.70
2017-11-06T04:51:57.858Z,75.10
2017-11-06T04:54:28.587Z,75.00
2017-11-06T04:56:58.705Z,75.00
2017-11-06T04:59:29.851Z,74.90
2017-11-06T05:01:59.970Z,74.80
2017-11-06T05:04:30.090Z,75.30
2017-11-06T05:07:00.000Z,75.30
2017-11-06T05:09:30.734Z,74.80
2017-11-06T05:12:00.856Z,74.70
2017-11-06T05:14:30.980Z,74.90
2017-11-06T05:17:01.097Z,75.20
2017-11-06T05:22:30.603Z,75.30
2017-11-06T05:25:02.162Z,75.40
2017-11-06T05:27:33.521Z,75.30
2017-11-06T05:30:03.582Z,75.30
2017-11-06T05:32:33.349Z,75.40
2017-11-06T05:35:03.358Z,75.20
2017-11-06T05:37:33.788Z,74.90
2017-11-06T05:40:05.755Z,74.90
2017-11-06T05:42:35.876Z,74.70
2017-11-06T05:45:05.785Z,74.40
2017-11-06T05:47:35.800Z,74.50
2017-11-06T05:50:07.139Z,74.70
2017-11-06T05:52:37.049Z,74.70
2017-11-06T05:55:07.215Z,74.80
2017-11-06T05:57:37.098Z,75.00
2017-11-06T06:00:08.031Z,74.70
2017-11-06T06:02:37.960Z,74.70
2017-11-06T06:05:07.986Z,74.70
2017-11-06T06:07:38.805Z,74.10
2017-11-06T06:10:08.923Z,74.10
2017-11-06T06:12:49.389Z,75.00
2017-11-06T06:15:32.934Z,74.90
2017-11-06T06:18:04.571Z,74.30
2017-11-06T06:20:35.098Z,74.40
2017-11-06T06:23:04.912Z,74.40
2017-11-06T06:25:35.658Z,74.80
2017-11-06T06:28:06.312Z,74.80
2017-11-06T06:30:37.113Z,74.70
2017-11-06T06:33:07.453Z,74.50
2017-11-06T06:35:37.556Z,74.80
2017-11-06T06:38:07.632Z,74.60
2017-11-06T06:40:38.006Z,73.90
2017-11-06T06:43:08.119Z,74.10
2017-11-06T06:45:38.033Z,74.30
2017-11-06T06:48:08.837Z,74.80
2017-11-06T06:50:39.186Z,74.00
2017-11-06T06:53:09.010Z,74.30
2017-11-06T06:55:39.328Z,74.70
2017-11-06T06:58:09.401Z,74.30
2017-11-06T07:00:39.159Z,74.40
2017-11-06T07:03:09.069Z,74.60
2017-11-06T07:05:39.174Z,74.70
2017-11-06T07:08:09.103Z,74.60
2017-11-06T07:10:39.653Z,74.20
2017-11-06T07:13:13.034Z,74.60
2017-11-06T07:15:42.738Z,74.50
2017-11-06T07:18:12.650Z,74.50
2017-11-06T07:20:42.360Z,74.60
2017-11-06T07:23:12.275Z,74.50
2017-11-06T07:25:41.985Z,74.80
2017-11-06T07:28:12.718Z,74.30
2017-11-06T07:30:43.247Z,74.20
2017-11-06T07:33:13.142Z,74.20
2017-11-06T07:35:43.690Z,74.30
2017-11-06T07:38:14.219Z,74.50
2017-11-06T07:40:44.202Z,74.50
2017-11-06T07:43:14.346Z,74.60
2017-11-06T07:45:44.168Z,74.70
2017-11-06T07:48:14.080Z,75.30
2017-11-06T07:50:45.658Z,75.00
2017-11-06T07:53:15.538Z,75.00
2017-11-06T07:55:45.605Z,75.00
2017-11-06T07:58:16.813Z,76.00
2017-11-06T08:00:46.931Z,75.30
2017-11-06T08:03:17.211Z,75.00
2017-11-06T08:05:47.183Z,75.50
2017-11-06T08:08:17.085Z,75.40
2017-11-06T08:10:46.996Z,75.30
2017-11-06T08:13:16.914Z,75.30
2017-11-06T08:15:46.828Z,75.40
2017-11-06T08:18:17.157Z,75.50
2017-11-06T08:20:47.272Z,75.70
2017-11-06T08:23:18.004Z,75.60
2017-11-06T08:25:47.712Z,75.80
2017-11-06T08:28:17.626Z,75.90
2017-11-06T08:30:47.540Z,76.00
2017-11-06T08:33:17.661Z,76.10
2017-11-06T08:35:47.781Z,76.10
2017-11-06T08:38:18.924Z,76.00
2017-11-06T08:40:49.653Z,76.00
2017-11-06T08:43:22.064Z,75.90
2017-11-06T08:45:52.146Z,75.80
2017-11-06T08:48:22.881Z,75.80
2017-11-06T08:50:52.596Z,75.70
2017-11-06T08:53:22.710Z,75.60
2017-11-06T08:55:52.627Z,75.50
2017-11-06T08:58:22.544Z,75.40
2017-11-06T09:00:52.450Z,75.40
2017-11-06T09:03:22.743Z,75.30
2017-11-06T09:05:52.895Z,75.30
2017-11-06T09:08:23.126Z,75.30
2017-11-06T09:10:53.949Z,75.20
2017-11-06T09:13:24.143Z,75.20
2017-11-06T09:15:53.983Z,75.20
2017-11-06T09:18:24.103Z,75.30
2017-11-06T09:20:54.687Z,75.10
2017-11-06T09:23:24.752Z,75.10
2017-11-06T09:25:54.668Z,75.00
2017-11-06T09:28:24.375Z,75.00
2017-11-06T09:30:54.084Z,75.10
2017-11-06T09:33:24.625Z,75.00
2017-11-06T09:35:54.746Z,75.00
2017-11-06T09:38:25.727Z,75.30
2017-11-06T09:40:56.001Z,75.40
2017-11-06T09:43:26.322Z,75.10
2017-11-06T09:45:56.600Z,75.10
2017-11-06T09:48:26.561Z,75.10
2017-11-06T09:50:56.481Z,75.20
2017-11-06T09:53:27.006Z,75.40
2017-11-06T09:55:57.272Z,75.80
2017-11-06T09:58:27.035Z,76.10
2017-11-06T10:00:57.975Z,75.40
2017-11-06T10:03:28.913Z,75.50
2017-11-06T10:05:58.811Z,75.50
2017-11-06T10:08:28.752Z,75.60
2017-11-06T10:10:59.052Z,75.80
2017-11-06T10:13:30.208Z,75.70
2017-11-06T10:16:00.726Z,76.40
2017-11-06T10:18:31.059Z,75.60
2017-11-06T10:21:02.143Z,75.70
2017-11-06T10:23:32.392Z,75.70
2017-11-06T10:26:02.647Z,75.40
2017-11-06T10:28:32.562Z,75.40
2017-11-06T10:31:02.475Z,75.60
2017-11-06T10:33:33.422Z,75.50
2017-11-06T10:36:03.955Z,75.50
2017-11-06T10:38:34.111Z,75.50
2017-11-06T10:41:03.973Z,75.20
2017-11-06T10:43:34.526Z,75.10
2017-11-06T10:46:05.850Z,75.40
2017-11-06T10:48:36.075Z,75.90
2017-11-06T10:51:05.992Z,75.50
2017-11-06T10:53:36.181Z,75.30
2017-11-06T10:56:06.839Z,75.50
2017-11-06T10:58:37.077Z,75.90
2017-11-06T11:01:11.107Z,75.40
2017-11-06T11:03:41.192Z,75.20
2017-11-06T11:06:11.334Z,75.20
2017-11-06T11:08:42.229Z,75.60
2017-11-06T11:11:12.325Z,75.40
2017-11-06T11:13:42.290Z,75.50
2017-11-06T11:16:12.815Z,75.40
2017-11-06T11:18:42.920Z,75.40
2017-11-06T11:21:19.288Z,75.90
2017-11-06T11:23:49.516Z,75.40
2017-11-06T11:26:19.568Z,75.40
2017-11-06T11:28:49.544Z,75.80
2017-11-06T11:31:19.873Z,75.80
2017-11-06T11:33:50.402Z,75.60
2017-11-06T11:36:20.115Z,75.70
2017-11-06T11:38:50.946Z,75.60
2017-11-06T11:41:20.861Z,75.80
2017-11-06T11:43:50.772Z,75.50
2017-11-06T11:46:20.690Z,75.60
2017-11-06T11:48:51.390Z,75.80
2017-11-06T11:51:21.684Z,76.00
2017-11-06T11:53:51.664Z,75.60
2017-11-06T11:56:21.771Z,75.50
2017-11-06T11:58:51.695Z,76.20
2017-11-06T12:01:21.709Z,75.40
2017-11-06T12:03:51.628Z,75.70
2017-11-06T12:06:21.746Z,75.20
2017-11-06T12:08:52.234Z,75.00
2017-11-06T12:11:22.190Z,75.30
2017-11-06T12:13:52.089Z,75.00
2017-11-06T12:16:22.260Z,75.40
2017-11-06T12:18:52.143Z,75.30
2017-11-06T12:21:22.304Z,75.50
2017-11-06T12:23:52.569Z,75.30
2017-11-06T12:26:22.851Z,75.50
2017-11-06T12:28:53.936Z,75.40
2017-11-06T12:31:25.095Z,73.50
2017-11-06T12:33:55.412Z,73.40
2017-11-06T12:36:25.533Z,72.90
2017-11-06T12:38:55.853Z,71.20
2017-11-06T12:41:26.588Z,69.30
2017-11-06T12:43:57.716Z,69.30
2017-11-06T12:46:27.639Z,69.10
2017-11-06T12:48:58.589Z,69.20
2017-11-06T12:51:28.982Z,69.20
2017-11-06T12:53:58.983Z,68.60
2017-11-06T12:56:28.996Z,68.80
2017-11-06T12:58:59.468Z,69.00
2017-11-06T13:01:30.347Z,68.60
2017-11-06T13:04:02.266Z,68.30
2017-11-06T13:06:33.975Z,68.20
2017-11-06T13:09:04.400Z,68.40
2017-11-06T13:11:34.461Z,68.40
2017-11-06T13:14:04.855Z,68.30
2017-11-06T13:16:34.966Z,68.30
2017-11-06T13:19:05.037Z,68.60
2017-11-06T13:21:35.203Z,68.30
2017-11-06T13:24:05.886Z,68.50
2017-11-06T13:26:36.832Z,68.60
2017-11-06T13:29:06.998Z,68.80
2017-11-06T13:31:37.283Z,69.00
2017-11-06T13:34:07.586Z,69.10
2017-11-06T13:36:37.701Z,69.00
2017-11-06T13:39:13.186Z,69.20
2017-11-06T13:41:43.190Z,69.30
2017-11-06T13:44:13.952Z,69.10
2017-11-06T13:46:44.127Z,69.10
2017-11-06T13:49:15.007Z,70.10
2017-11-06T13:51:45.190Z,69.40
2017-11-06T13:54:16.126Z,69.50
2017-11-06T13:56:46.101Z,69.70
2017-11-06T13:59:16.361Z,69.80
2017-11-06T14:01:46.275Z,70.00
2017-11-06T14:04:16.761Z,70.00
2017-11-06T14:06:47.561Z,70.20
2017-11-06T14:09:17.454Z,67.20
2017-11-06T14:11:47.414Z,67.40
2017-11-06T14:14:18.216Z,67.70
2017-11-06T14:16:49.000Z,69.00
2017-11-06T14:19:19.570Z,69.00
2017-11-06T14:21:49.720Z,69.40
2017-11-06T14:24:19.655Z,69.90
2017-11-06T14:26:49.922Z,69.80
2017-11-06T14:29:20.038Z,69.80
2017-11-06T14:31:50.132Z,70.10
2017-11-06T14:34:20.832Z,70.20
2017-11-06T14:36:50.594Z,70.20
2017-11-06T14:39:20.725Z,70.40
2017-11-06T14:41:50.814Z,70.20
2017-11-06T14:44:20.698Z,70.40
2017-11-06T14:46:50.669Z,70.50
2017-11-06T14:49:21.238Z,70.50
2017-11-06T14:51:51.120Z,70.60
2017-11-06T14:54:20.931Z,70.60
2017-11-06T14:56:51.047Z,70.50
2017-11-06T14:59:21.011Z,70.40
2017-11-06T15:01:51.352Z,70.40
2017-11-06T15:04:21.202Z,70.40
2017-11-06T15:06:52.250Z,70.40
2017-11-06T15:09:22.901Z,70.30
2017-11-06T15:11:52.993Z,70.30
2017-11-06T15:14:23.111Z,70.50
2017-11-06T15:16:53.033Z,70.50
2017-11-06T15:19:23.198Z,70.40
2017-11-06T15:21:53.217Z,70.40
2017-11-06T15:24:23.175Z,70.40
2017-11-06T15:26:53.299Z,70.60
2017-11-06T15:29:23.620Z,70.60
2017-11-06T15:31:54.567Z,70.60
2017-11-06T15:34:24.679Z,70.60
2017-11-06T15:36:55.950Z,70.90
2017-11-06T15:39:25.950Z,70.90
2017-11-06T15:41:56.065Z,70.80
2017-11-06T15:44:26.144Z,70.70
2017-11-06T15:46:56.076Z,70.50
2017-11-06T15:49:26.201Z,70.40
2017-11-06T15:51:56.171Z,70.10
2017-11-06T15:54:26.453Z,70.00
2017-11-06T15:56:56.581Z,70.20
2017-11-06T15:59:26.475Z,70.60
2017-11-06T16:01:56.816Z,70.30
2017-11-06T16:04:26.729Z,70.20
2017-11-06T16:06:57.257Z,70.30
2017-11-06T16:09:27.372Z,70.40
2017-11-06T16:11:57.272Z,71.20
2017-11-06T16:14:27.543Z,71.20
2017-11-06T16:16:57.529Z,71.50
2017-11-06T16:19:27.561Z,70.90
2017-11-06T16:21:58.610Z,71.20
2017-11-06T16:24:28.701Z,71.30
2017-11-06T16:27:00.663Z,70.40
2017-11-06T16:29:31.397Z,70.30
2017-11-06T16:32:01.655Z,70.60
2017-11-06T16:34:32.211Z,70.10
2017-11-06T16:37:02.985Z,69.90
2017-11-06T16:39:32.896Z,70.80
2017-11-06T16:42:03.025Z,71.10
2017-11-06T16:44:33.136Z,71.20
2017-11-06T16:47:03.866Z,70.20
2017-11-06T16:49:34.809Z,70.80
2017-11-06T16:52:04.740Z,70.80
2017-11-06T16:54:35.048Z,70.10
2017-11-06T16:57:06.609Z,70.80
2017-11-06T16:59:38.149Z,70.10
2017-11-06T17:02:08.173Z,70.20
2017-11-06T17:04:39.855Z,70.20
2017-11-06T17:07:10.152Z,70.30
2017-11-06T17:09:40.479Z,70.90
2017-11-06T17:12:10.716Z,71.40
2017-11-06T17:14:44.147Z,71.30
2017-11-06T17:17:14.082Z,70.90
2017-11-06T17:19:44.163Z,71.30
2017-11-06T17:22:14.108Z,70.60
2017-11-06T17:24:44.117Z,70.10
2017-11-06T17:27:14.379Z,71.30
2017-11-06T17:29:45.113Z,70.70
2017-11-06T17:32:15.438Z,70.70
2017-11-06T17:34:45.719Z,71.40
2017-11-06T17:37:16.287Z,70.40
2017-11-06T17:39:46.811Z,70.60
2017-11-06T17:42:16.876Z,69.60
2017-11-06T17:44:47.065Z,71.40
2017-11-06T17:47:17.382Z,71.30
2017-11-06T17:49:47.497Z,70.50
2017-11-06T17:52:17.619Z,69.90
2017-11-06T17:54:48.377Z,70.70
2017-11-06T17:57:18.880Z,69.80
2017-11-06T17:59:48.982Z,70.20
2017-11-06T18:02:19.065Z,69.60
2017-11-06T18:04:49.236Z,70.30
2017-11-06T18:07:19.527Z,70.10
2017-11-06T18:09:50.136Z,70.20
2017-11-06T18:12:20.426Z,69.50
2017-11-06T18:14:50.843Z,70.20
2017-11-06T18:20:21.105Z,70.30
2017-11-06T18:22:52.685Z,69.60
2017-11-06T18:25:22.661Z,69.60
2017-11-06T18:27:53.385Z,69.40
2017-11-06T18:30:23.711Z,70.10
2017-11-06T18:32:54.647Z,69.90
2017-11-06T18:35:25.115Z,69.30
2017-11-06T18:37:55.027Z,69.40
2017-11-06T18:40:25.477Z,69.20
2017-11-06T18:42:55.527Z,69.80
2017-11-06T18:45:25.971Z,69.80
2017-11-06T18:47:56.692Z,69.30
2017-11-06T18:50:27.179Z,69.50
2017-11-06T18:52:57.345Z,69.30
2017-11-06T18:55:28.688Z,69.80
2017-11-06T18:57:58.810Z,69.60
2017-11-06T19:00:29.468Z,69.30
2017-11-06T19:02:59.515Z,69.20
2017-11-06T19:05:29.992Z,69.10
2017-11-06T19:08:00.190Z,69.30
2017-11-06T19:10:30.445Z,69.60
2017-11-06T19:13:00.752Z,69.80
2017-11-06T19:15:31.256Z,69.10
2017-11-06T19:18:01.631Z,69.50
2017-11-06T19:20:32.038Z,69.30
2017-11-06T19:23:02.508Z,69.40
2017-11-06T19:25:32.752Z,69.00
2017-11-06T19:28:02.639Z,69.10
2017-11-06T19:30:32.736Z,69.20
2017-11-06T19:33:03.416Z,69.00
2017-11-06T19:35:33.440Z,69.20
2017-11-06T19:38:03.485Z,69.20
2017-11-06T19:40:34.519Z,69.10
2017-11-06T19:43:04.449Z,69.00
2017-11-06T19:45:34.758Z,69.00
2017-11-06T19:48:04.673Z,69.40
2017-11-06T19:50:34.871Z,68.40
2017-11-06T19:53:05.792Z,69.60
2017-11-06T19:55:37.084Z,70.00
2017-11-06T19:58:07.793Z,69.50
2017-11-06T20:00:39.352Z,68.60
2017-11-06T20:03:09.638Z,68.60
2017-11-06T20:05:41.241Z,69.70
2017-11-06T20:08:11.712Z,68.40
2017-11-06T20:10:42.509Z,68.60
2017-11-06T20:13:12.832Z,68.70
2017-11-06T20:15:43.467Z,68.50
2017-11-06T20:18:14.302Z,68.80
2017-11-06T20:20:45.236Z,68.80
2017-11-06T20:23:15.335Z,69.10
2017-11-06T20:25:47.332Z,68.60
2017-11-06T20:28:17.842Z,68.60
2017-11-06T20:30:48.630Z,68.90
2017-11-06T20:33:18.837Z,68.90
2017-11-06T20:35:50.248Z,69.10
2017-11-06T20:38:25.971Z,68.60
2017-11-06T20:40:57.012Z,69.10
2017-11-06T20:43:27.566Z,68.90
2017-11-06T20:45:59.073Z,68.60
2017-11-06T20:48:29.855Z,68.60
2017-11-06T20:51:00.802Z,68.40
2017-11-06T20:53:31.937Z,69.00
2017-11-06T20:56:02.014Z,69.20
2017-11-06T20:58:32.076Z,68.90
2017-11-06T21:01:02.908Z,68.70
2017-11-06T21:03:32.972Z,68.50
2017-11-06T21:06:03.146Z,68.80
2017-11-06T21:08:33.433Z,68.60
2017-11-06T21:11:03.856Z,68.80
2017-11-06T21:13:34.714Z,68.70
2017-11-06T21:16:05.265Z,68.60
2017-11-06T21:18:35.604Z,68.60
2017-11-06T21:21:07.259Z,68.90
2017-11-06T21:23:37.447Z,69.00
2017-11-06T21:26:08.401Z,68.90
2017-11-06T21:28:38.556Z,68.80
2017-11-06T21:31:09.251Z,68.70
2017-11-06T21:33:39.556Z,68.90
2017-11-06T21:36:09.490Z,69.00
2017-11-06T21:38:39.797Z,68.70
2017-11-06T21:41:10.909Z,69.00
2017-11-06T21:43:41.277Z,68.90
2017-11-06T21:46:17.237Z,68.90
2017-11-06T21:48:47.566Z,68.60
2017-11-06T21:51:17.694Z,68.80
2017-11-06T21:53:47.715Z,68.90
2017-11-06T21:56:18.835Z,68.60
2017-11-06T21:58:48.950Z,68.60
2017-11-06T22:01:18.965Z,68.80
2017-11-06T22:03:49.096Z,68.80
2017-11-06T22:06:19.161Z,69.00
2017-11-06T22:08:49.074Z,68.80
2017-11-06T22:11:19.502Z,68.70
2017-11-06T22:13:49.575Z,68.90
2017-11-06T22:16:19.467Z,69.10
2017-11-06T22:18:49.445Z,69.20
2017-11-06T22:21:19.323Z,68.60
2017-11-06T22:23:49.845Z,69.20
2017-11-06T22:26:19.637Z,68.70
2017-11-06T22:28:49.468Z,68.80
2017-11-06T22:31:19.382Z,68.80
2017-11-06T22:33:49.296Z,69.60
2017-11-06T22:36:19.214Z,68.90
2017-11-06T22:38:49.533Z,68.70
2017-11-06T22:41:19.656Z,68.60
2017-11-06T22:43:49.568Z,68.90
2017-11-06T22:46:19.470Z,68.80
2017-11-06T22:48:49.600Z,69.20
2017-11-06T22:51:20.334Z,69.60
2017-11-06T22:53:50.227Z,69.60
2017-11-06T22:56:20.368Z,69.30
2017-11-06T22:58:50.994Z,68.90
2017-11-06T23:01:22.833Z,69.20
2017-11-06T23:03:53.232Z,69.20
2017-11-06T23:06:23.403Z,69.00
2017-11-06T23:08:53.731Z,68.90
2017-11-06T23:11:23.805Z,68.80
2017-11-06T23:13:53.555Z,68.70
2017-11-06T23:16:23.509Z,68.80
2017-11-06T23:18:53.573Z,68.80
2017-11-06T23:21:23.708Z,68.90
2017-11-06T23:23:54.851Z,68.70
2017-11-06T23:26:25.154Z,69.10
2017-11-06T23:28:55.089Z,68.70
2017-11-06T23:31:24.809Z,68.80
2017-11-06T23:33:54.702Z,68.70
2017-11-06T23:36:24.846Z,68.90
2017-11-06T23:38:54.952Z,68.70
2017-11-06T23:41:24.848Z,68.60
2017-11-06T23:43:54.786Z,68.80
2017-11-06T23:46:24.960Z,69.00
2017-11-06T23:48:55.019Z,68.80
2017-11-06T23:51:24.919Z,68.70
2017-11-06T23:53:54.853Z,68.90
2017-11-06T23:56:24.747Z,69.00
2017-11-06T23:58:54.661Z,69.10
